Time;durP1;ratioP1;P1;durP2;ratioP2;P2;SDS_P1;SDS_P2;PMS_P1;PMS_P2;Temp;Humidity;BMP_temperature;BMP_pressure;BME280_temperature;BME280_humidity;BME280_pressure;Samples;Min_cycle;Max_cycle;Signal;HPM_P1;HPM_P2
2021/03/19 00:01:55;;;;;;;26.10;13.88;;;0.50;99.90;;;;;;5075302;28;20055;-73
2021/03/19 00:04:20;;;;;;;27.15;15.13;;;0.50;99.90;;;;;;5075265;28;20029;-73
2021/03/19 00:06:46;;;;;;;29.15;14.48;;;0.40;99.90;;;;;;5075091;28;20059;-73
2021/03/19 00:09:12;;;;;;;27.63;14.65;;;0.40;99.90;;;;;;5075127;28;20384;-73
2021/03/19 00:11:39;;;;;;;25.52;14.13;;;0.40;99.90;;;;;;5075130;28;20409;-74
2021/03/19 00:14:07;;;;;;;27.20;14.55;;;0.30;99.90;;;;;;5075004;28;20020;-73
2021/03/19 00:16:33;;;;;;;24.10;13.75;;;0.20;99.90;;;;;;5075036;28;20454;-73
2021/03/19 00:19:00;;;;;;;24.40;13.38;;;0.20;99.90;;;;;;5075009;28;20107;-73
2021/03/19 00:21:26;;;;;;;28.52;14.10;;;0.10;99.90;;;;;;5074807;28;20112;-73
2021/03/19 00:23:52;;;;;;;25.63;14.13;;;0.00;99.90;;;;;;5074784;28;20103;-73
2021/03/19 00:26:18;;;;;;;28.50;14.25;;;0.00;99.90;;;;;;5074811;28;20472;-73
2021/03/19 00:28:44;;;;;;;27.23;14.40;;;-0.10;99.90;;;;;;5074780;28;20108;-73
2021/03/19 00:31:09;;;;;;;28.75;15.48;;;-0.10;99.90;;;;;;5074798;28;20100;-73
2021/03/19 00:33:35;;;;;;;26.42;14.48;;;-0.10;99.90;;;;;;5074731;28;20021;-73
2021/03/19 00:36:01;;;;;;;23.38;13.82;;;-0.10;99.90;;;;;;5074098;28;20033;-73
2021/03/19 00:38:27;;;;;;;25.80;14.68;;;-0.20;99.90;;;;;;5074672;28;20063;-73
2021/03/19 00:40:52;;;;;;;30.85;15.02;;;-0.20;99.90;;;;;;5074554;28;20465;-73
2021/03/19 00:43:18;;;;;;;25.70;14.60;;;-0.20;99.90;;;;;;5074610;28;20024;-73
2021/03/19 00:45:45;;;;;;;29.38;14.95;;;-0.20;99.90;;;;;;5074295;28;20094;-73
2021/03/19 00:48:11;;;;;;;22.45;12.55;;;-0.20;99.90;;;;;;5074368;28;20526;-73
2021/03/19 00:50:42;;;;;;;27.17;13.95;;;-0.20;99.90;;;;;;5074422;28;20024;-73
2021/03/19 00:53:09;;;;;;;27.45;13.38;;;-0.30;99.90;;;;;;5074302;28;20021;-73
2021/03/19 00:55:36;;;;;;;26.85;14.73;;;-0.20;99.90;;;;;;5074429;28;20439;-73
2021/03/19 00:58:02;;;;;;;27.33;14.20;;;-0.10;99.90;;;;;;5072962;28;20028;-73
2021/03/19 01:00:32;;;;;;;30.25;15.00;;;0.00;99.90;;;;;;5074192;28;20025;-73
2021/03/19 01:02:57;;;;;;;24.83;13.27;;;-0.10;99.90;;;;;;5074047;28;20563;-74
2021/03/19 01:05:26;;;;;;;23.85;12.88;;;-0.10;99.90;;;;;;5074165;28;20090;-73
2021/03/19 01:07:53;;;;;;;25.23;13.35;;;-0.30;99.90;;;;;;5073975;28;20107;-73
2021/03/19 01:10:25;;;;;;;20.50;12.13;;;-0.40;99.90;;;;;;5073945;28;20021;-73
2021/03/19 01:12:51;;;;;;;26.15;12.77;;;-0.50;99.90;;;;;;5073905;28;20031;-73
2021/03/19 01:15:17;;;;;;;20.65;12.48;;;-0.50;99.90;;;;;;5073901;28;20024;-74
2021/03/19 01:17:43;;;;;;;29.30;14.73;;;-0.50;99.90;;;;;;5073798;28;20480;-73
2021/03/19 01:20:15;;;;;;;27.00;13.40;;;-0.50;99.90;;;;;;5072592;28;20033;-73
2021/03/19 01:22:41;;;;;;;21.90;12.75;;;-0.40;99.90;;;;;;5072639;28;20028;-73
2021/03/19 01:25:10;;;;;;;27.38;13.50;;;-0.40;99.90;;;;;;5073740;28;20171;-73
2021/03/19 01:27:36;;;;;;;24.42;13.57;;;-0.40;99.90;;;;;;5073633;28;20025;-73
2021/03/19 01:30:05;;;;;;;25.23;11.95;;;-0.40;99.90;;;;;;5073630;28;20024;-73
2021/03/19 01:32:31;;;;;;;28.80;14.30;;;-0.50;99.90;;;;;;5073605;28;20409;-73
2021/03/19 01:34:56;;;;;;;23.45;13.57;;;-0.50;99.90;;;;;;5073495;28;20052;-74
2021/03/19 01:37:22;;;;;;;26.65;13.38;;;-0.60;99.90;;;;;;5073285;28;20027;-73
2021/03/19 01:39:48;;;;;;;27.38;13.32;;;-0.50;99.90;;;;;;5073388;28;20028;-73
2021/03/19 01:42:14;;;;;;;25.08;13.98;;;-0.60;99.90;;;;;;5073269;28;20025;-73
2021/03/19 01:44:42;;;;;;;22.95;12.48;;;-0.70;99.90;;;;;;5073067;28;20063;-73
2021/03/19 01:47:45;;;;;;;21.05;11.93;;;-0.70;99.90;;;;;;5071889;28;20073;-75
2021/03/19 01:50:48;;;;;;;20.42;12.25;;;-0.80;99.90;;;;;;5072731;28;20106;-74
2021/03/19 01:53:52;;;;;;;24.88;11.82;;;-0.80;99.90;;;;;;5071399;28;20052;-75
2021/03/19 01:56:55;;;;;;;23.70;12.52;;;-0.70;99.90;;;;;;5072552;28;20057;-74
2021/03/19 01:59:58;;;;;;;22.25;12.25;;;-0.60;99.90;;;;;;5072617;28;20372;-74
2021/03/19 02:03:01;;;;;;;25.63;12.35;;;-0.60;99.90;;;;;;5054559;28;20123;-74
2021/03/19 02:06:04;;;;;;;25.52;12.55;;;-0.70;99.90;;;;;;5072239;28;20029;-74
2021/03/19 02:09:07;;;;;;;24.17;12.65;;;-0.80;99.90;;;;;;5071080;28;20078;-74
2021/03/19 02:12:11;;;;;;;22.80;12.13;;;-0.90;99.90;;;;;;5071127;28;20542;-74
2021/03/19 02:15:14;;;;;;;22.45;11.82;;;-0.80;99.90;;;;;;5070916;28;20507;-74
2021/03/19 02:18:17;;;;;;;20.63;11.40;;;-0.70;99.90;;;;;;5054240;28;20396;-74
2021/03/19 02:21:21;;;;;;;22.27;11.90;;;-0.70;99.90;;;;;;5071006;28;20021;-74
2021/03/19 02:24:24;;;;;;;25.33;12.65;;;-0.70;99.90;;;;;;5072243;28;20032;-74
2021/03/19 02:27:27;;;;;;;22.45;11.73;;;-0.70;99.90;;;;;;5054007;28;20498;-74
2021/03/19 02:30:30;;;;;;;21.88;11.73;;;-0.70;99.90;;;;;;5070847;28;20017;-74
2021/03/19 02:32:56;;;;;;;19.92;11.60;;;-0.50;99.90;;;;;;5054114;28;20066;-74
2021/03/19 02:35:23;;;;;;;23.73;11.85;;;-0.50;99.90;;;;;;5071957;28;20493;-74
2021/03/19 02:37:50;;;;;;;17.67;10.38;;;-0.60;99.90;;;;;;5071970;28;20131;-75
2021/03/19 02:40:20;;;;;;;21.40;11.35;;;-0.50;99.90;;;;;;5072030;28;20066;-75
2021/03/19 02:42:46;;;;;;;21.63;11.73;;;-0.60;99.90;;;;;;5072097;28;20028;-74
2021/03/19 02:45:16;;;;;;;26.80;11.00;;;-0.50;99.90;;;;;;5071624;28;20035;-74
2021/03/19 02:47:42;;;;;;;22.00;11.27;;;-0.40;99.90;;;;;;5071802;28;20392;-75
2021/03/19 02:50:10;;;;;;;20.88;11.55;;;-0.40;99.90;;;;;;5071940;28;20021;-74
2021/03/19 02:52:39;;;;;;;20.02;10.65;;;-0.40;99.90;;;;;;5070707;28;20085;-74
2021/03/19 02:55:09;;;;;;;19.92;11.35;;;-0.20;99.90;;;;;;5071802;28;20028;-74
2021/03/19 02:57:35;;;;;;;19.25;10.38;;;-0.20;99.90;;;;;;5070286;28;20504;-74
2021/03/19 03:00:01;;;;;;;20.38;11.50;;;-0.20;99.90;;;;;;5071762;28;20028;-74
2021/03/19 03:02:27;;;;;;;20.27;10.43;;;-0.30;99.90;;;;;;5071817;28;20080;-74
2021/03/19 03:04:52;;;;;;;18.42;10.40;;;-0.30;99.90;;;;;;5071722;28;20119;-74
2021/03/19 03:07:20;;;;;;;19.40;10.52;;;-0.30;99.90;;;;;;5071766;28;20029;-74
2021/03/19 03:09:46;;;;;;;18.70;10.25;;;-0.30;99.90;;;;;;5071682;28;20029;-74
2021/03/19 03:12:12;;;;;;;19.42;9.95;;;-0.20;99.90;;;;;;5071755;28;20025;-74
2021/03/19 03:14:37;;;;;;;23.27;11.25;;;-0.10;99.90;;;;;;5071645;28;20047;-74
2021/03/19 03:17:04;;;;;;;16.73;9.85;;;0.00;99.90;;;;;;5071688;28;20039;-74
2021/03/19 03:19:30;;;;;;;18.70;10.60;;;-0.10;99.90;;;;;;5071705;28;20095;-74
2021/03/19 03:21:57;;;;;;;19.73;9.55;;;0.00;99.90;;;;;;5071654;28;20032;-74
2021/03/19 03:24:25;;;;;;;20.65;10.75;;;-0.10;99.90;;;;;;5071515;28;20060;-74
2021/03/19 03:26:51;;;;;;;19.23;10.98;;;0.00;99.90;;;;;;5071537;28;20031;-74
2021/03/19 03:29:20;;;;;;;19.95;10.48;;;-0.10;99.90;;;;;;5071446;28;20028;-74
2021/03/19 03:31:46;;;;;;;20.77;10.73;;;-0.20;99.90;;;;;;5070209;28;20024;-75
2021/03/19 03:34:12;;;;;;;21.00;11.55;;;-0.20;99.90;;;;;;5070265;28;20028;-74
2021/03/19 03:36:39;;;;;;;19.17;10.10;;;-0.30;99.90;;;;;;5071379;28;20071;-74
2021/03/19 03:39:09;;;;;;;20.27;11.18;;;-0.40;99.90;;;;;;5071380;28;20024;-74
2021/03/19 03:41:35;;;;;;;24.83;11.57;;;-0.40;99.90;;;;;;5070273;28;20028;-74
2021/03/19 03:44:00;;;;;;;17.75;9.93;;;-0.20;99.90;;;;;;5071413;28;20578;-74
2021/03/19 03:46:27;;;;;;;15.77;10.05;;;-0.30;99.90;;;;;;5070763;28;20112;-74
2021/03/19 03:48:55;;;;;;;17.73;9.65;;;-0.30;99.90;;;;;;5071387;28;20095;-75
2021/03/19 03:51:23;;;;;;;20.77;11.57;;;-0.20;99.90;;;;;;5071369;28;20020;-74
2021/03/19 03:53:49;;;;;;;17.42;10.63;;;0.10;99.90;;;;;;5071299;28;20020;-74
2021/03/19 03:56:15;;;;;;;16.70;9.80;;;0.20;99.90;;;;;;5071196;28;20025;-74
2021/03/19 03:58:41;;;;;;;17.58;9.35;;;0.20;99.90;;;;;;5069965;28;20057;-74
2021/03/19 04:01:08;;;;;;;21.05;9.57;;;0.30;99.90;;;;;;5071223;28;20074;-74
2021/03/19 04:03:34;;;;;;;17.10;8.90;;;0.40;99.90;;;;;;5071275;28;20079;-74
2021/03/19 04:05:59;;;;;;;28.05;11.00;;;0.50;99.90;;;;;;5069805;28;20024;-74
2021/03/19 04:08:27;;;;;;;15.32;9.77;;;0.50;99.90;;;;;;5071138;28;20365;-74
2021/03/19 04:10:57;;;;;;;18.50;10.52;;;0.40;99.90;;;;;;5072029;28;20027;-74
2021/03/19 04:13:24;;;;;;;25.17;10.10;;;0.20;99.90;;;;;;5074633;28;20021;-74
2021/03/19 04:15:51;;;;;;;16.30;9.82;;;0.10;99.90;;;;;;5073469;28;20091;-74
2021/03/19 04:18:18;;;;;;;24.63;10.77;;;0.30;99.90;;;;;;5074480;28;20029;-74
2021/03/19 04:20:47;;;;;;;17.73;10.00;;;0.40;99.90;;;;;;5074605;28;20024;-74
2021/03/19 04:23:13;;;;;;;18.20;10.02;;;0.60;99.90;;;;;;5074542;28;20024;-74
2021/03/19 04:25:39;;;;;;;25.45;10.95;;;0.70;99.90;;;;;;5074346;28;20029;-74
2021/03/19 04:28:08;;;;;;;21.75;9.63;;;0.80;99.90;;;;;;5074408;28;20032;-75
2021/03/19 04:30:40;;;;;;;18.67;9.80;;;0.90;99.90;;;;;;5074406;28;20054;-75
2021/03/19 04:33:09;;;;;;;25.88;11.13;;;0.90;99.90;;;;;;5074424;28;20480;-74
2021/03/19 04:35:35;;;;;;;28.83;10.45;;;1.10;99.90;;;;;;5056192;28;20025;-74
2021/03/19 04:38:09;;;;;;;27.10;11.07;;;1.00;99.90;;;;;;5074098;28;20464;-75
2021/03/19 04:40:36;;;;;;;18.20;10.38;;;1.20;99.90;;;;;;5074366;28;20472;-74
2021/03/19 04:43:03;;;;;;;19.95;11.32;;;1.30;99.90;;;;;;5073020;28;20054;-75
2021/03/19 04:45:29;;;;;;;28.25;11.32;;;1.30;99.90;;;;;;5073867;28;20032;-74
2021/03/19 04:47:56;;;;;;;23.08;10.80;;;1.30;99.90;;;;;;5072261;28;20028;-74
2021/03/19 04:50:23;;;;;;;32.08;14.40;;;1.30;99.90;;;;;;5073923;28;20039;-74
2021/03/19 04:52:49;;;;;;;28.88;10.05;;;1.30;99.90;;;;;;5074003;28;20098;-75
2021/03/19 04:55:16;;;;;;;24.52;9.95;;;1.10;99.90;;;;;;5073829;28;20036;-74
2021/03/19 04:57:41;;;;;;;23.67;10.70;;;1.10;99.90;;;;;;5073788;28;20017;-74
2021/03/19 05:00:10;;;;;;;23.00;9.45;;;1.10;99.90;;;;;;5073890;28;20116;-74
2021/03/19 05:02:41;;;;;;;24.38;10.55;;;1.00;99.90;;;;;;5073653;28;20119;-74
2021/03/19 05:05:21;;;;;;;26.50;10.55;;;1.10;99.90;;;;;;5072281;28;20028;-74
2021/03/19 05:07:47;;;;;;;23.80;10.38;;;1.10;99.90;;;;;;5072210;28;20029;-74
2021/03/19 05:10:14;;;;;;;28.85;9.77;;;1.10;99.90;;;;;;5073496;28;20031;-74
2021/03/19 05:12:40;;;;;;;18.50;9.77;;;1.00;99.90;;;;;;5073406;28;20028;-74
2021/03/19 05:15:08;;;;;;;22.92;9.77;;;0.90;99.90;;;;;;5073299;28;20511;-74
2021/03/19 05:17:34;;;;;;;19.55;10.13;;;0.80;99.90;;;;;;5072045;28;20025;-75
2021/03/19 05:20:00;;;;;;;18.27;9.63;;;0.50;99.90;;;;;;5072100;28;20027;-74
2021/03/19 05:22:26;;;;;;;19.15;10.38;;;0.70;99.90;;;;;;5073145;28;20032;-74
2021/03/19 05:24:53;;;;;;;46.40;12.82;;;0.70;99.90;;;;;;5073139;28;20474;-74
2021/03/19 05:27:19;;;;;;;26.73;10.70;;;0.50;99.90;;;;;;5073040;28;20071;-74
2021/03/19 05:29:46;;;;;;;22.00;12.15;;;0.40;99.90;;;;;;5072988;28;20016;-74
2021/03/19 05:32:12;;;;;;;16.83;10.52;;;0.50;99.90;;;;;;5073068;28;20099;-74
2021/03/19 05:34:38;;;;;;;31.08;11.32;;;0.60;99.90;;;;;;5072902;28;20021;-74
2021/03/19 05:37:04;;;;;;;23.10;10.48;;;0.60;99.90;;;;;;5071690;28;20392;-74
2021/03/19 05:39:30;;;;;;;17.33;8.63;;;0.60;99.90;;;;;;5072839;28;20079;-74
2021/03/19 05:41:56;;;;;;;24.67;10.93;;;0.60;99.90;;;;;;5072814;28;20480;-74
2021/03/19 05:44:24;;;;;;;17.88;8.60;;;0.40;99.90;;;;;;5071362;28;20056;-74
2021/03/19 05:46:53;;;;;;;18.38;9.18;;;0.30;99.90;;;;;;5070959;28;20029;-75
2021/03/19 05:49:31;;;;;;;19.02;10.52;;;0.10;99.90;;;;;;5072666;28;20056;-74
2021/03/19 05:52:07;;;;;;;15.23;8.10;;;0.10;99.90;;;;;;5071947;28;20024;-75
2021/03/19 05:54:39;;;;;;;14.55;7.80;;;0.00;99.90;;;;;;5068997;28;20031;-74
2021/03/19 05:57:08;;;;;;;21.23;8.30;;;0.10;99.90;;;;;;5070470;28;20024;-74
2021/03/19 05:59:36;;;;;;;13.65;8.50;;;-0.10;99.90;;;;;;5064501;28;20060;-75
2021/03/19 06:02:03;;;;;;;13.45;8.02;;;-0.20;99.90;;;;;;5071517;28;20040;-74
2021/03/19 06:04:31;;;;;;;21.85;9.75;;;-0.30;99.90;;;;;;5069618;28;20036;-75
2021/03/19 06:07:01;;;;;;;20.67;9.55;;;-0.30;99.90;;;;;;5071164;28;20472;-74
2021/03/19 06:09:41;;;;;;;15.95;8.57;;;-0.30;99.90;;;;;;5071138;28;20020;-74
2021/03/19 06:12:09;;;;;;;18.98;9.75;;;-0.30;99.90;;;;;;5069595;28;20031;-74
2021/03/19 06:14:54;;;;;;;22.40;8.82;;;-0.40;99.90;;;;;;5071130;28;20020;-74
2021/03/19 06:17:41;;;;;;;17.17;9.80;;;-0.30;99.90;;;;;;5067653;28;20396;-74
2021/03/19 06:20:14;;;;;;;16.95;8.82;;;-0.10;99.90;;;;;;5071101;28;20039;-75
2021/03/19 06:23:16;;;;;;;16.10;8.63;;;-0.10;99.90;;;;;;5069475;28;20286;-74
2021/03/19 06:26:20;;;;;;;20.33;7.97;;;-0.20;99.90;;;;;;5068151;28;20028;-74
2021/03/19 06:28:52;;;;;;;24.15;10.27;;;-0.10;99.90;;;;;;5047394;28;20171;-75
2021/03/19 06:31:29;;;;;;;27.85;9.95;;;-0.10;99.90;;;;;;5047859;28;20090;-74
2021/03/19 06:34:18;;;;;;;16.65;9.27;;;0.00;99.90;;;;;;5058326;28;20029;-75
2021/03/19 06:37:00;;;;;;;15.07;9.35;;;-0.10;99.90;;;;;;5070388;28;20033;-74
2021/03/19 06:39:33;;;;;;;19.90;9.55;;;-0.10;99.90;;;;;;5066846;28;20056;-74
2021/03/19 06:42:11;;;;;;;17.27;8.93;;;-0.20;99.90;;;;;;5070204;28;20487;-74
2021/03/19 06:44:38;;;;;;;16.23;8.88;;;-0.30;99.90;;;;;;5066578;28;20032;-74
2021/03/19 06:47:09;;;;;;;20.23;9.88;;;-0.30;99.90;;;;;;5070393;28;20116;-74
2021/03/19 06:50:31;;;;;;;22.25;9.20;;;-0.20;99.90;;;;;;5069753;28;20056;-75
2021/03/19 06:53:12;;;;;;;16.48;9.07;;;-0.10;99.90;;;;;;5060212;28;20048;-75
2021/03/19 06:55:42;;;;;;;18.45;9.48;;;0.00;99.90;;;;;;5068625;28;20025;-74
2021/03/19 06:58:07;;;;;;;27.10;10.45;;;-0.20;99.90;;;;;;5069369;28;20028;-74
2021/03/19 07:00:44;;;;;;;19.13;10.73;;;-0.20;99.90;;;;;;5070037;28;20037;-75
2021/03/19 07:03:12;;;;;;;34.92;11.85;;;-0.10;99.90;;;;;;5070699;28;20369;-74
2021/03/19 07:05:56;;;;;;;21.85;10.38;;;-0.10;99.90;;;;;;5070588;28;20029;-74
2021/03/19 07:08:46;;;;;;;19.35;10.40;;;-0.10;99.90;;;;;;5069416;28;20029;-75
2021/03/19 07:11:37;;;;;;;18.20;9.65;;;-0.10;99.90;;;;;;5070176;28;20032;-75
2021/03/19 07:14:22;;;;;;;18.37;9.43;;;-0.50;99.90;;;;;;5069121;28;20381;-74
2021/03/19 07:17:14;;;;;;;19.98;9.73;;;-0.60;99.90;;;;;;5070011;28;20286;-74
2021/03/19 07:20:04;;;;;;;22.17;10.90;;;-0.50;99.90;;;;;;5057837;28;20040;-74
2021/03/19 07:22:59;;;;;;;21.42;9.95;;;-0.40;99.90;;;;;;5068753;28;20024;-75
2021/03/19 07:25:29;;;;;;;18.95;9.70;;;-0.40;99.90;;;;;;5064025;28;20067;-75
2021/03/19 07:28:36;;;;;;;17.77;9.70;;;-0.20;99.90;;;;;;5068677;28;20036;-75
2021/03/19 07:31:29;;;;;;;17.83;10.60;;;-0.30;99.90;;;;;;5022351;28;20467;-74
2021/03/19 07:34:13;;;;;;;56.30;12.68;;;-0.40;99.90;;;;;;5068765;28;20020;-75
2021/03/19 07:37:20;;;;;;;23.45;10.77;;;-0.40;99.90;;;;;;5067036;28;20032;-74
2021/03/19 07:40:07;;;;;;;19.10;8.93;;;-0.50;99.90;;;;;;5083553;28;20051;-74
2021/03/19 07:42:39;;;;;;;17.80;9.73;;;-0.40;99.90;;;;;;5068611;28;20052;-75
2021/03/19 07:45:37;;;;;;;20.80;10.52;;;-0.30;99.90;;;;;;5070734;28;20035;-75
2021/03/19 07:48:15;;;;;;;22.60;9.88;;;-0.40;99.90;;;;;;5070532;28;20029;-74
2021/03/19 07:51:04;;;;;;;18.83;9.77;;;-0.40;99.90;;;;;;5074087;28;20968;-74
2021/03/19 07:53:44;;;;;;;18.33;9.20;;;-0.20;99.90;;;;;;5070582;28;20376;-75
2021/03/19 07:56:35;;;;;;;14.52;9.18;;;-0.10;99.90;;;;;;5073780;28;20036;-75
2021/03/19 07:59:24;;;;;;;25.13;9.23;;;0.20;99.90;;;;;;5071786;28;20021;-74
2021/03/19 08:01:50;;;;;;;18.88;9.90;;;0.30;99.90;;;;;;5064062;28;20043;-75
2021/03/19 08:04:37;;;;;;;19.25;8.80;;;0.30;99.90;;;;;;5073023;28;20017;-75
2021/03/19 08:07:34;;;;;;;22.90;11.50;;;0.30;99.90;;;;;;5072829;28;20038;-74
2021/03/19 08:10:27;;;;;;;23.88;12.18;;;0.40;99.90;;;;;;5068900;28;20035;-74
2021/03/19 08:13:31;;;;;;;34.35;12.68;;;0.40;99.90;;;;;;5069706;28;20424;-74
2021/03/19 08:16:05;;;;;;;28.35;12.25;;;0.40;99.90;;;;;;5071775;28;20084;-74
2021/03/19 08:18:39;;;;;;;20.98;10.85;;;0.30;99.90;;;;;;5069167;28;20469;-74
2021/03/19 08:21:14;;;;;;;20.95;10.15;;;0.50;99.90;;;;;;5054889;28;20025;-74
2021/03/19 08:23:48;;;;;;;17.25;10.55;;;0.60;99.90;;;;;;5073159;28;20476;-75
2021/03/19 08:26:35;;;;;;;18.13;9.95;;;0.80;99.90;;;;;;5072659;28;20028;-75
2021/03/19 08:29:36;;;;;;;19.63;11.35;;;0.60;99.90;;;;;;5072000;28;20032;-74
2021/03/19 08:32:35;;;;;;;18.42;10.57;;;0.60;99.90;;;;;;5067652;28;20028;-75
2021/03/19 08:35:25;;;;;;;37.25;11.23;;;0.80;99.90;;;;;;5055089;28;20067;-75
2021/03/19 08:38:19;;;;;;;23.00;10.60;;;1.00;99.90;;;;;;5068425;28;20033;-74
2021/03/19 08:40:59;;;;;;;27.83;11.15;;;1.10;99.90;;;;;;5067360;28;20031;-75
2021/03/19 08:43:46;;;;;;;21.73;10.13;;;1.30;99.90;;;;;;5072279;28;20085;-75
2021/03/19 08:46:17;;;;;;;20.30;12.00;;;1.50;99.90;;;;;;5068652;28;20082;-75
2021/03/19 08:49:10;;;;;;;26.08;11.73;;;1.60;99.90;;;;;;5072157;28;20016;-75
2021/03/19 08:51:43;;;;;;;23.88;13.00;;;1.60;99.90;;;;;;5069252;28;20051;-75
2021/03/19 08:54:12;;;;;;;23.98;12.55;;;1.80;99.90;;;;;;5066437;28;20114;-75
2021/03/19 08:56:53;;;;;;;26.90;12.82;;;1.90;99.90;;;;;;5070661;28;20024;-75
2021/03/19 08:59:31;;;;;;;22.67;12.35;;;1.80;99.90;;;;;;5072101;28;20024;-75
2021/03/19 09:01:59;;;;;;;19.42;11.95;;;1.70;99.90;;;;;;5069388;28;20041;-75
2021/03/19 09:04:53;;;;;;;31.92;17.60;;;1.80;99.90;;;;;;5072201;28;20107;-74
2021/03/19 09:07:36;;;;;;;37.35;14.65;;;1.60;99.90;;;;;;5071095;28;20082;-75
2021/03/19 09:10:15;;;;;;;19.77;12.13;;;1.90;99.90;;;;;;5072034;28;20027;-75
2021/03/19 09:13:00;;;;;;;20.80;12.18;;;1.80;99.90;;;;;;5071059;28;20040;-74
2021/03/19 09:15:31;;;;;;;23.27;12.15;;;2.00;99.90;;;;;;5068385;28;20039;-75
2021/03/19 09:17:58;;;;;;;20.80;12.43;;;2.20;99.90;;;;;;5072082;28;20541;-75
2021/03/19 09:20:36;;;;;;;17.27;10.80;;;2.30;99.90;;;;;;5070690;28;20317;-75
2021/03/19 09:23:10;;;;;;;24.48;13.18;;;2.50;99.90;;;;;;5071420;28;20229;-75
2021/03/19 09:25:45;;;;;;;22.30;12.43;;;2.80;99.90;;;;;;5071974;28;20093;-75
2021/03/19 09:28:17;;;;;;;19.42;11.70;;;2.70;99.90;;;;;;5071529;28;20107;-74
2021/03/19 09:31:21;;;;;;;21.05;10.43;;;3.00;99.90;;;;;;5071083;28;20032;-75
2021/03/19 09:33:46;;;;;;;20.73;12.15;;;3.30;99.90;;;;;;5064087;28;20025;-75
2021/03/19 09:36:51;;;;;;;19.15;11.70;;;3.70;99.90;;;;;;5070465;28;20024;-75
2021/03/19 09:39:55;;;;;;;20.98;12.88;;;3.10;99.00;;;;;;5071272;28;20475;-75
2021/03/19 09:42:21;;;;;;;34.58;13.30;;;3.00;99.90;;;;;;5072265;28;20020;-75
2021/03/19 09:45:07;;;;;;;22.60;14.02;;;3.30;99.90;;;;;;5070117;28;20094;-75
2021/03/19 09:48:07;;;;;;;32.20;14.40;;;3.50;99.80;;;;;;5060215;28;20041;-74
2021/03/19 09:50:34;;;;;;;31.02;13.15;;;3.40;98.50;;;;;;5069065;28;20377;-75
2021/03/19 09:53:23;;;;;;;36.65;14.40;;;3.60;99.60;;;;;;5071994;28;20027;-75
2021/03/19 09:55:55;;;;;;;29.90;14.32;;;3.50;95.70;;;;;;5069776;28;20021;-75
2021/03/19 09:58:20;;;;;;;;;;;3.70;98.10;;;;;;5071784;28;20021;-75
2021/03/19 10:01:07;;;;;;;21.85;12.65;;;3.70;96.60;;;;;;5071164;28;19912;-75
2021/03/19 10:03:48;;;;;;;25.38;14.70;;;3.50;95.50;;;;;;5071433;28;20024;-75
2021/03/19 10:06:25;;;;;;;25.40;14.40;;;3.40;96.80;;;;;;5067479;28;20054;-75
2021/03/19 10:09:01;;;;;;;26.45;13.40;;;3.40;99.00;;;;;;5070358;28;20473;-75
2021/03/19 10:11:27;;;;;;;26.20;14.98;;;3.10;97.50;;;;;;5067884;28;20047;-74
2021/03/19 10:14:10;;;;;;;21.98;11.95;;;3.10;99.20;;;;;;5070824;28;20028;-75
2021/03/19 10:16:36;;;;;;;22.48;13.82;;;3.30;99.40;;;;;;5070854;28;20054;-76
2021/03/19 10:19:10;;;;;;;23.63;11.88;;;3.40;98.00;;;;;;5071022;28;20025;-76
2021/03/19 10:21:44;;;;;;;25.30;14.25;;;3.60;97.40;;;;;;5071217;28;20020;-76
2021/03/19 10:24:11;;;;;;;30.88;12.95;;;3.90;96.00;;;;;;5070671;28;20035;-76
2021/03/19 10:26:50;;;;;;;22.88;12.10;;;4.00;92.10;;;;;;5069679;28;20027;-77
2021/03/19 10:29:30;;;;;;;26.60;13.45;;;4.20;92.70;;;;;;5070758;28;20043;-76
2021/03/19 10:32:03;;;;;;;145.32;17.25;;;4.30;91.30;;;;;;5068015;28;20059;-75
2021/03/19 10:34:43;;;;;;;59.15;13.70;;;4.00;90.80;;;;;;5069336;28;20027;-74
2021/03/19 10:37:41;;;;;;;32.63;15.60;;;3.60;91.90;;;;;;5067012;28;20047;-74
2021/03/19 10:40:37;;;;;;;25.75;14.57;;;3.60;94.80;;;;;;5068443;28;20387;-75
2021/03/19 10:43:24;;;;;;;63.65;14.57;;;3.20;95.50;;;;;;5070807;28;20024;-75
2021/03/19 10:45:54;;;;;;;34.00;16.58;;;3.30;96.10;;;;;;5066865;28;20029;-75
2021/03/19 10:48:22;;;;;;;24.65;14.63;;;3.40;99.00;;;;;;5069324;28;20044;-75
2021/03/19 10:51:13;;;;;;;23.13;14.05;;;3.50;97.10;;;;;;5070623;28;20016;-75
2021/03/19 10:53:49;;;;;;;26.92;14.82;;;3.40;96.60;;;;;;5070184;28;20039;-74
2021/03/19 10:56:16;;;;;;;25.20;16.05;;;3.40;97.50;;;;;;5070249;28;20472;-74
2021/03/19 10:58:46;;;;;;;28.45;15.57;;;3.30;97.70;;;;;;5070355;28;20369;-75
2021/03/19 11:01:38;;;;;;;24.15;13.93;;;3.10;98.40;;;;;;5070669;28;20353;-75
2021/03/19 11:04:33;;;;;;;22.85;13.98;;;3.00;96.70;;;;;;5070075;28;20055;-75
2021/03/19 11:07:15;;;;;;;20.88;14.05;;;3.00;97.50;;;;;;5066487;28;20835;-74
2021/03/19 11:10:01;;;;;;;21.15;13.55;;;3.00;96.80;;;;;;5069918;28;20025;-74
2021/03/19 11:12:40;;;;;;;30.35;18.10;;;4.00;97.70;;;;;;5070553;28;20020;-75
2021/03/19 11:15:10;;;;;;;21.55;14.55;;;4.00;95.80;;;;;;5067780;28;20029;-75
2021/03/19 11:17:36;;;;;;;22.08;14.65;;;3.80;94.50;;;;;;5068724;28;20353;-75
2021/03/19 11:20:17;;;;;;;27.30;15.02;;;3.70;94.60;;;;;;5071867;28;20563;-76
2021/03/19 11:22:45;;;;;;;20.67;14.07;;;4.30;95.80;;;;;;5073069;28;20020;-75
2021/03/19 11:25:41;;;;;;;18.08;12.02;;;4.90;91.80;;;;;;5072913;28;20059;-75
2021/03/19 11:28:26;;;;;;;20.58;12.55;;;5.00;89.40;;;;;;5072363;28;20033;-75
2021/03/19 11:30:52;;;;;;;16.73;11.88;;;5.50;89.70;;;;;;5073229;28;20017;-75
2021/03/19 11:33:19;;;;;;;17.80;13.02;;;5.90;84.60;;;;;;5073713;28;20023;-75
2021/03/19 11:36:12;;;;;;;21.60;13.15;;;5.60;85.70;;;;;;5073065;28;20040;-75
2021/03/19 11:38:41;;;;;;;16.50;10.85;;;5.70;85.70;;;;;;5073653;28;20046;-75
2021/03/19 11:41:30;;;;;;;19.25;12.40;;;5.50;82.80;;;;;;5072504;28;20021;-75
2021/03/19 11:43:57;;;;;;;22.90;15.75;;;5.20;83.80;;;;;;5070978;28;20500;-74
2021/03/19 11:46:24;;;;;;;28.63;17.95;;;4.60;84.10;;;;;;5076302;28;20086;-75
2021/03/19 11:48:50;;;;;;;16.65;12.23;;;4.60;87.40;;;;;;5073112;28;20029;-75
2021/03/19 11:51:20;;;;;;;18.30;11.43;;;5.30;85.50;;;;;;5073997;28;20548;-75
2021/03/19 11:53:46;;;;;;;18.73;12.75;;;6.10;84.50;;;;;;5055157;28;20511;-75
2021/03/19 11:56:13;;;;;;;18.40;11.50;;;7.10;81.20;;;;;;5073094;28;20058;-76
2021/03/19 11:58:39;;;;;;;16.98;11.52;;;7.90;77.40;;;;;;5072500;28;20017;-73
2021/03/19 12:01:07;;;;;;;15.15;10.82;;;8.40;73.20;;;;;;5073027;28;20099;-73
2021/03/19 12:03:51;;;;;;;16.80;11.15;;;8.20;68.00;;;;;;5073274;28;20021;-74
2021/03/19 12:06:19;;;;;;;19.35;11.82;;;7.80;73.70;;;;;;5071343;28;20052;-73
2021/03/19 12:08:45;;;;;;;15.02;10.45;;;8.10;74.80;;;;;;5073558;28;20020;-73
2021/03/19 12:11:24;;;;;;;16.45;10.88;;;8.00;70.70;;;;;;5073312;28;20094;-73
2021/03/19 12:13:50;;;;;;;27.42;13.07;;;7.70;72.50;;;;;;5072076;28;20025;-74
2021/03/19 12:16:16;;;;;;;17.48;11.35;;;7.10;74.70;;;;;;5072753;28;20070;-73
2021/03/19 12:18:42;;;;;;;21.65;11.05;;;6.50;74.60;;;;;;5071851;28;20366;-74
2021/03/19 12:21:08;;;;;;;23.75;12.18;;;7.00;76.20;;;;;;5071868;28;20055;-74
2021/03/19 12:23:34;;;;;;;21.15;11.30;;;7.70;73.90;;;;;;5054921;28;20020;-74
2021/03/19 12:25:59;;;;;;;24.42;11.45;;;8.30;71.90;;;;;;5073244;28;20046;-74
2021/03/19 12:28:25;;;;;;;20.70;11.13;;;9.00;70.90;;;;;;5072627;28;20024;-75
2021/03/19 12:30:54;;;;;;;19.42;11.43;;;9.60;69.10;;;;;;5072178;28;20025;-74
2021/03/19 12:33:23;;;;;;;20.30;11.80;;;9.70;69.70;;;;;;5071915;28;20549;-73
2021/03/19 12:35:50;;;;;;;16.60;10.23;;;8.80;66.40;;;;;;5072996;28;20025;-73
2021/03/19 12:38:16;;;;;;;20.80;12.02;;;8.50;69.80;;;;;;5071649;28;20060;-72
2021/03/19 12:40:43;;;;;;;18.10;10.02;;;7.90;71.00;;;;;;5072344;28;20032;-72
2021/03/19 12:43:11;;;;;;;20.27;10.60;;;8.20;73.00;;;;;;5067046;28;20036;-73
2021/03/19 12:45:37;;;;;;;22.95;8.77;;;8.10;70.80;;;;;;5070622;28;20534;-73
2021/03/19 12:48:04;;;;;;;35.65;11.25;;;7.70;71.00;;;;;;5071283;28;20032;-72
2021/03/19 12:50:31;;;;;;;46.63;12.30;;;7.70;70.40;;;;;;5072852;28;20020;-73
2021/03/19 12:52:58;;;;;;;20.85;9.80;;;7.90;72.40;;;;;;5072763;28;20020;-73
2021/03/19 12:55:25;;;;;;;29.92;11.38;;;7.90;68.30;;;;;;5073317;28;20017;-73
2021/03/19 12:57:51;;;;;;;28.60;11.35;;;7.90;67.90;;;;;;5073730;28;20507;-73
2021/03/19 13:00:19;;;;;;;27.35;11.75;;;7.70;67.40;;;;;;5073283;28;20024;-73
2021/03/19 13:02:45;;;;;;;32.00;10.90;;;7.80;69.10;;;;;;5072394;28;20412;-74
2021/03/19 13:05:12;;;;;;;27.85;11.48;;;7.90;68.30;;;;;;5073528;28;20029;-73
2021/03/19 13:07:38;;;;;;;20.20;9.55;;;7.70;67.60;;;;;;5073339;28;20427;-73
2021/03/19 13:10:04;;;;;;;16.95;8.35;;;7.80;67.00;;;;;;5073425;28;20020;-73
2021/03/19 13:12:30;;;;;;;17.75;9.98;;;7.60;65.40;;;;;;5073554;28;20020;-73
2021/03/19 13:14:56;;;;;;;15.13;11.02;;;7.50;66.20;;;;;;5073205;28;20027;-73